createdAt,value
2019-05-29T00:00:58.763Z,26.00
2019-05-29T00:01:58.661Z,24.40
2019-05-29T00:02:58.565Z,25.20
2019-05-29T00:03:58.483Z,26.70
2019-05-29T00:04:58.375Z,24.50
2019-05-29T00:05:58.277Z,23.30
2019-05-29T00:06:58.183Z,25.30
2019-05-29T00:07:58.086Z,24.60
2019-05-29T00:08:58.014Z,24.60
2019-05-29T00:09:57.892Z,24.30
2019-05-29T00:10:57.797Z,23.60
2019-05-29T00:11:57.700Z,25.10
2019-05-29T00:12:57.607Z,23.80
2019-05-29T00:13:57.526Z,24.00
2019-05-29T00:14:57.413Z,25.70
2019-05-29T00:15:57.316Z,22.10
2019-05-29T00:16:57.220Z,20.70
2019-05-29T00:17:57.123Z,22.50
2019-05-29T00:18:58.399Z,24.50
2019-05-29T00:19:56.932Z,22.50
2019-05-29T00:20:56.834Z,22.10
2019-05-29T00:21:56.742Z,23.80
2019-05-29T00:22:56.645Z,22.60
2019-05-29T00:23:56.561Z,21.40
2019-05-29T00:24:56.452Z,24.80
2019-05-29T00:25:56.358Z,22.90
2019-05-29T00:26:56.262Z,23.90
2019-05-29T00:27:56.163Z,23.60
2019-05-29T00:28:56.069Z,25.80
2019-05-29T00:29:55.993Z,24.00
2019-05-29T00:30:55.875Z,24.30
2019-05-29T00:31:55.778Z,22.50
2019-05-29T00:32:55.684Z,23.40
2019-05-29T00:33:55.590Z,22.20
2019-05-29T00:34:55.642Z,23.70
2019-05-29T00:35:55.397Z,24.00
2019-05-29T00:36:55.302Z,24.00
2019-05-29T00:37:55.211Z,25.20
2019-05-29T00:38:55.110Z,25.00
2019-05-29T00:39:55.030Z,26.70
2019-05-29T00:40:54.914Z,24.60
2019-05-29T00:41:54.820Z,25.50
2019-05-29T00:42:54.727Z,23.10
2019-05-29T00:43:54.631Z,22.20
2019-05-29T00:44:54.546Z,23.70
2019-05-29T00:45:54.436Z,24.30
2019-05-29T00:46:54.339Z,25.70
2019-05-29T00:47:54.244Z,21.30
2019-05-29T00:48:54.198Z,23.40
2019-05-29T00:49:54.066Z,23.80
2019-05-29T00:50:53.956Z,23.90
2019-05-29T00:51:53.859Z,24.20
2019-05-29T00:52:53.765Z,23.20
2019-05-29T00:53:53.667Z,23.00
2019-05-29T00:54:53.585Z,20.40
2019-05-29T00:55:53.474Z,20.80
2019-05-29T00:56:53.379Z,20.90
2019-05-29T00:57:53.283Z,22.00
2019-05-29T00:58:53.338Z,22.90
2019-05-29T00:59:53.102Z,24.30
2019-05-29T01:00:52.994Z,20.10
2019-05-29T01:01:52.902Z,20.40
2019-05-29T01:02:52.815Z,21.70
2019-05-29T01:03:52.706Z,22.00
2019-05-29T01:04:52.626Z,21.50
2019-05-29T01:05:52.622Z,21.30
2019-05-29T01:06:52.425Z,21.10
2019-05-29T01:07:52.325Z,22.80
2019-05-29T01:08:52.225Z,21.40
2019-05-29T01:09:52.144Z,23.20
2019-05-29T01:10:52.038Z,24.90
2019-05-29T01:11:51.936Z,23.70
2019-05-29T01:12:51.977Z,23.50
2019-05-29T01:13:51.744Z,24.00
2019-05-29T01:14:51.663Z,25.40
2019-05-29T01:15:51.552Z,23.80
2019-05-29T01:16:51.459Z,24.70
2019-05-29T01:17:51.479Z,23.90
2019-05-29T01:18:51.264Z,26.80
2019-05-29T01:19:51.181Z,23.90
2019-05-29T01:20:51.071Z,25.90
2019-05-29T01:21:50.977Z,25.50
2019-05-29T01:22:50.901Z,25.80
2019-05-29T01:23:50.786Z,26.30
2019-05-29T01:24:50.700Z,25.80
2019-05-29T01:25:50.592Z,30.00
2019-05-29T01:26:50.496Z,26.10
2019-05-29T01:27:50.397Z,25.80
2019-05-29T01:28:50.302Z,26.20
2019-05-29T01:29:50.207Z,26.10
2019-05-29T01:30:51.561Z,25.30
2019-05-29T01:31:50.013Z,24.90
2019-05-29T01:32:49.918Z,26.40
2019-05-29T01:33:49.820Z,26.50
2019-05-29T01:34:49.727Z,26.30
2019-05-29T01:35:49.641Z,24.70
2019-05-29T01:36:49.531Z,25.00
2019-05-29T01:37:49.437Z,26.00
2019-05-29T01:38:49.343Z,26.20
2019-05-29T01:39:49.244Z,25.30
2019-05-29T01:40:49.162Z,25.50
2019-05-29T01:41:49.049Z,24.10
2019-05-29T01:42:49.988Z,25.00
2019-05-29T01:43:48.858Z,26.70
2019-05-29T01:44:48.761Z,25.60
2019-05-29T01:45:48.680Z,26.80
2019-05-29T01:46:48.571Z,25.40
2019-05-29T01:47:48.472Z,27.50
2019-05-29T01:48:48.639Z,25.70
2019-05-29T01:49:48.281Z,27.10
2019-05-29T01:50:48.199Z,26.40
2019-05-29T01:51:48.086Z,26.60
2019-05-29T01:52:47.993Z,26.90
2019-05-29T01:53:47.896Z,27.10
2019-05-29T01:54:47.800Z,27.10
2019-05-29T01:55:47.820Z,28.00
2019-05-29T01:56:47.607Z,28.10
2019-05-29T01:57:47.510Z,28.50
2019-05-29T01:58:47.413Z,27.90
2019-05-29T01:59:47.317Z,27.90
2019-05-29T02:00:47.235Z,32.10
2019-05-29T02:01:47.126Z,29.40
2019-05-29T02:02:47.137Z,27.40
2019-05-29T02:03:46.930Z,27.70
2019-05-29T02:04:46.843Z,29.60
2019-05-29T02:05:46.752Z,29.50
2019-05-29T02:06:46.643Z,31.40
2019-05-29T02:07:46.545Z,31.30
2019-05-29T02:08:46.450Z,29.70
2019-05-29T02:09:46.461Z,29.20
2019-05-29T02:10:46.271Z,29.10
2019-05-29T02:11:46.161Z,29.90
2019-05-29T02:12:46.065Z,30.90
2019-05-29T02:13:45.983Z,30.70
2019-05-29T02:14:45.876Z,31.70
2019-05-29T02:15:45.791Z,31.20
2019-05-29T02:16:45.786Z,31.10
2019-05-29T02:17:45.588Z,30.00
2019-05-29T02:18:45.490Z,30.40
2019-05-29T02:19:45.390Z,31.10
2019-05-29T02:20:45.314Z,32.60
2019-05-29T02:21:45.198Z,30.30
2019-05-29T02:22:45.105Z,32.30
2019-05-29T02:23:45.113Z,32.40
2019-05-29T02:24:44.908Z,31.70
2019-05-29T02:25:44.826Z,32.20
2019-05-29T02:26:44.718Z,32.10
2019-05-29T02:27:44.620Z,33.70
2019-05-29T02:28:44.524Z,31.60
2019-05-29T02:29:44.427Z,34.50
2019-05-29T02:30:44.454Z,32.30
2019-05-29T02:31:44.237Z,33.90
2019-05-29T02:32:44.140Z,32.60
2019-05-29T02:33:44.044Z,32.80
2019-05-29T02:34:43.953Z,33.10
2019-05-29T02:35:43.862Z,31.30
2019-05-29T02:36:43.862Z,32.90
2019-05-29T02:37:43.659Z,32.30
2019-05-29T02:38:43.559Z,32.70
2019-05-29T02:39:43.465Z,33.60
2019-05-29T02:40:43.386Z,31.90
2019-05-29T02:41:43.273Z,31.30
2019-05-29T02:42:43.174Z,27.60
2019-05-29T02:43:43.084Z,33.90
2019-05-29T02:44:42.983Z,33.20
2019-05-29T02:45:53.879Z,31.20
2019-05-29T02:46:42.806Z,30.40
2019-05-29T02:47:42.701Z,28.50
2019-05-29T02:48:42.599Z,27.90
2019-05-29T02:49:42.502Z,26.50
2019-05-29T02:50:42.407Z,26.70
2019-05-29T02:51:42.324Z,25.70
2019-05-29T02:52:42.214Z,26.90
2019-05-29T02:53:42.130Z,25.60
2019-05-29T02:54:42.025Z,24.80
2019-05-29T02:55:41.927Z,24.70
2019-05-29T02:56:42.828Z,24.70
2019-05-29T02:57:41.734Z,24.20
2019-05-29T02:58:41.636Z,25.80
2019-05-29T02:59:41.542Z,22.30
2019-05-29T03:00:41.444Z,22.40
2019-05-29T03:01:41.362Z,23.30
2019-05-29T03:02:41.250Z,20.50
2019-05-29T03:03:41.159Z,21.30
2019-05-29T03:04:41.063Z,22.30
2019-05-29T03:05:40.963Z,21.50
2019-05-29T03:06:40.881Z,21.20
2019-05-29T03:07:40.770Z,22.90
2019-05-29T03:08:40.672Z,21.20
2019-05-29T03:09:40.581Z,20.40
2019-05-29T03:10:40.479Z,19.20
2019-05-29T03:11:40.396Z,18.50
2019-05-29T03:12:40.307Z,18.80
2019-05-29T03:13:40.192Z,20.50
2019-05-29T03:14:40.093Z,17.30
2019-05-29T03:15:39.997Z,15.90
2019-05-29T03:16:39.914Z,18.00
2019-05-29T03:17:39.804Z,18.00
2019-05-29T03:18:39.708Z,17.80
2019-05-29T03:19:39.610Z,14.00
2019-05-29T03:20:39.517Z,13.50
2019-05-29T03:21:39.433Z,13.80
2019-05-29T03:22:39.321Z,14.00
2019-05-29T03:23:39.225Z,14.50
2019-05-29T03:24:39.129Z,13.90
2019-05-29T03:25:39.035Z,13.00
2019-05-29T03:26:38.953Z,12.60
2019-05-29T03:27:38.838Z,10.80
2019-05-29T03:28:38.759Z,9.80
2019-05-29T03:29:38.713Z,10.90
2019-05-29T03:30:45.308Z,10.30
2019-05-29T03:31:46.450Z,9.90
2019-05-29T03:32:46.272Z,9.30
2019-05-29T03:33:45.036Z,10.20
2019-05-29T03:34:45.615Z,9.80
2019-05-29T03:35:46.161Z,10.80
2019-05-29T03:36:46.363Z,11.20
2019-05-29T03:37:38.758Z,8.30
2019-05-29T03:38:38.589Z,9.20
2019-05-29T03:39:38.569Z,8.30
2019-05-29T03:40:38.704Z,7.50
2019-05-29T03:41:38.948Z,5.00
2019-05-29T03:42:39.012Z,4.90
2019-05-29T03:43:38.566Z,4.10
2019-05-29T03:44:38.580Z,3.20
2019-05-29T03:45:37.921Z,3.50
2019-05-29T03:46:43.016Z,2.80
2019-05-29T03:47:37.243Z,2.50
2019-05-29T03:48:38.495Z,2.20
2019-05-29T03:49:37.436Z,2.30
2019-05-29T03:50:38.174Z,1.90
2019-05-29T03:51:37.230Z,1.60
2019-05-29T03:52:36.434Z,1.70
2019-05-29T03:53:38.335Z,1.70
2019-05-29T03:54:36.228Z,1.30
2019-05-29T03:55:37.730Z,1.30
2019-05-29T03:56:36.035Z,1.00
2019-05-29T03:57:36.351Z,1.20
2019-05-29T03:58:37.518Z,1.50
2019-05-29T03:59:37.361Z,1.00
2019-05-29T04:00:41.312Z,1.20
2019-05-29T04:01:37.269Z,1.10
2019-05-29T04:02:37.838Z,1.00
2019-05-29T04:03:36.071Z,0.80
2019-05-29T04:04:36.178Z,1.50
2019-05-29T04:05:35.568Z,0.90
2019-05-29T04:06:35.596Z,0.80
2019-05-29T04:07:35.625Z,0.80
2019-05-29T04:08:35.774Z,1.00
2019-05-29T04:09:35.440Z,0.90
2019-05-29T04:10:37.158Z,1.10
2019-05-29T04:11:35.550Z,1.20
2019-05-29T04:12:35.491Z,1.40
2019-05-29T04:13:36.000Z,1.60
2019-05-29T04:14:35.679Z,1.70
2019-05-29T04:15:36.217Z,1.70
2019-05-29T04:16:54.102Z,1.90
2019-05-29T04:17:35.412Z,2.20
2019-05-29T04:18:34.483Z,2.50
2019-05-29T04:19:34.868Z,2.30
2019-05-29T04:20:33.705Z,3.30
2019-05-29T04:21:34.235Z,3.60
2019-05-29T04:22:34.332Z,3.50
2019-05-29T04:23:34.124Z,4.30
2019-05-29T04:24:34.013Z,4.80
2019-05-29T04:25:36.005Z,5.00
2019-05-29T04:26:34.045Z,5.80
2019-05-29T04:27:34.244Z,5.40
2019-05-29T04:28:34.733Z,6.50
2019-05-29T04:29:34.156Z,6.40
2019-05-29T04:30:34.160Z,6.30
2019-05-29T04:31:34.332Z,6.80
2019-05-29T04:32:34.065Z,6.80
2019-05-29T04:33:32.694Z,6.60
2019-05-29T04:34:34.299Z,7.30
2019-05-29T04:35:32.612Z,7.10
2019-05-29T04:36:32.923Z,7.90
2019-05-29T04:37:32.562Z,7.70
2019-05-29T04:38:33.823Z,8.60
2019-05-29T04:39:32.690Z,8.20
2019-05-29T04:40:32.665Z,7.60
2019-05-29T04:41:32.775Z,7.90
2019-05-29T04:42:33.523Z,8.20
2019-05-29T04:43:33.239Z,8.40
2019-05-29T04:44:33.089Z,9.10
2019-05-29T04:45:33.046Z,9.40
2019-05-29T04:46:31.751Z,8.60
2019-05-29T04:47:31.162Z,9.00
2019-05-29T04:48:32.033Z,9.30
2019-05-29T04:49:31.935Z,9.00
2019-05-29T04:50:31.386Z,8.60
2019-05-29T04:51:31.189Z,8.70
2019-05-29T04:52:31.375Z,8.90
2019-05-29T04:53:31.398Z,9.70
2019-05-29T04:54:31.078Z,9.30
2019-05-29T04:55:30.690Z,8.60
2019-05-29T04:56:30.747Z,8.70
2019-05-29T04:57:30.836Z,9.60
2019-05-29T04:58:30.754Z,9.50
2019-05-29T04:59:30.864Z,9.20
2019-05-29T05:00:30.898Z,9.50
2019-05-29T05:01:30.807Z,10.20
2019-05-29T05:02:29.601Z,9.30
2019-05-29T05:03:29.625Z,8.90
2019-05-29T05:04:29.407Z,9.00
2019-05-29T05:05:29.311Z,9.80
2019-05-29T05:06:29.214Z,10.20
2019-05-29T05:07:29.695Z,9.00
2019-05-29T05:08:29.259Z,9.30
2019-05-29T05:09:29.248Z,10.40
2019-05-29T05:10:29.232Z,9.40
2019-05-29T05:11:29.371Z,9.30
2019-05-29T05:12:29.600Z,9.90
2019-05-29T05:13:29.503Z,9.80
2019-05-29T05:14:29.540Z,11.10
2019-05-29T05:15:29.516Z,10.90
2019-05-29T05:16:29.604Z,10.90
2019-05-29T05:17:28.135Z,10.70
2019-05-29T05:18:28.052Z,9.90
2019-05-29T05:19:27.941Z,9.10
2019-05-29T05:20:27.855Z,9.60
2019-05-29T05:21:27.748Z,9.00
2019-05-29T05:22:27.649Z,9.40
2019-05-29T05:23:27.564Z,9.90
2019-05-29T05:24:27.452Z,10.30
2019-05-29T05:25:27.355Z,10.10
2019-05-29T05:26:27.258Z,9.90
2019-05-29T05:27:27.158Z,10.80
2019-05-29T05:28:27.077Z,12.00
2019-05-29T05:29:26.964Z,12.20
2019-05-29T05:30:26.868Z,10.20
2019-05-29T05:31:26.768Z,9.00
2019-05-29T05:32:26.673Z,10.10
2019-05-29T05:33:26.597Z,10.00
2019-05-29T05:34:26.478Z,9.10
2019-05-29T05:35:26.379Z,8.80
2019-05-29T05:36:26.286Z,10.40
2019-05-29T05:37:26.185Z,9.20
2019-05-29T05:38:26.102Z,10.30
2019-05-29T05:39:25.990Z,10.20
2019-05-29T05:40:25.894Z,10.10
2019-05-29T05:41:25.796Z,9.10
2019-05-29T05:42:25.701Z,9.90
2019-05-29T05:43:25.604Z,10.20
2019-05-29T05:44:25.520Z,10.20
2019-05-29T05:45:25.406Z,9.60
2019-05-29T05:46:25.311Z,10.00
2019-05-29T05:47:43.045Z,9.70
2019-05-29T05:48:25.115Z,9.50
2019-05-29T05:49:25.038Z,9.20
2019-05-29T05:50:24.927Z,9.40
2019-05-29T05:51:24.822Z,8.90
2019-05-29T05:52:24.724Z,9.20
2019-05-29T05:53:24.629Z,10.10
2019-05-29T05:54:24.545Z,9.10
2019-05-29T05:55:24.434Z,9.20
2019-05-29T05:56:24.335Z,9.20
2019-05-29T05:57:24.239Z,9.10
2019-05-29T05:58:24.140Z,9.90
2019-05-29T05:59:24.056Z,9.30
2019-05-29T06:00:23.954Z,9.10
2019-05-29T06:01:23.851Z,9.70
2019-05-29T06:02:23.754Z,9.20
2019-05-29T06:03:23.655Z,9.80
2019-05-29T06:04:23.571Z,9.80
2019-05-29T06:05:23.464Z,9.00
2019-05-29T06:06:23.364Z,9.50
2019-05-29T06:07:23.265Z,9.30
2019-05-29T06:08:23.169Z,9.20
2019-05-29T06:09:23.091Z,9.00
2019-05-29T06:10:22.974Z,10.20
2019-05-29T06:11:22.877Z,9.60
2019-05-29T06:12:22.891Z,8.90
2019-05-29T06:13:22.684Z,9.30
2019-05-29T06:14:22.602Z,9.00
2019-05-29T06:15:22.490Z,9.40
2019-05-29T06:16:22.431Z,8.50
2019-05-29T06:17:22.297Z,8.30
2019-05-29T06:18:22.210Z,9.30
2019-05-29T06:19:22.114Z,9.90
2019-05-29T06:20:22.156Z,9.00
2019-05-29T06:21:21.906Z,8.30
2019-05-29T06:22:21.814Z,8.60
2019-05-29T06:23:21.711Z,9.30
2019-05-29T06:24:21.634Z,8.80
2019-05-29T06:25:21.519Z,8.80
2019-05-29T06:26:21.537Z,9.70
2019-05-29T06:27:21.326Z,9.00
2019-05-29T06:28:21.225Z,8.20
2019-05-29T06:29:21.144Z,8.60
2019-05-29T06:30:21.034Z,7.80
2019-05-29T06:31:20.932Z,7.70
2019-05-29T06:32:20.838Z,7.90
2019-05-29T06:33:20.842Z,8.70
2019-05-29T06:34:20.658Z,9.40
2019-05-29T06:35:20.551Z,8.40
2019-05-29T06:36:20.451Z,7.90
2019-05-29T06:37:20.352Z,8.50
2019-05-29T06:38:20.255Z,8.90
2019-05-29T06:39:20.173Z,8.00
2019-05-29T06:40:20.173Z,8.50
2019-05-29T06:41:19.966Z,8.40
2019-05-29T06:42:19.871Z,8.60
2019-05-29T06:43:19.771Z,8.30
2019-05-29T06:44:19.821Z,7.50
2019-05-29T06:45:19.601Z,8.00
2019-05-29T06:46:19.481Z,8.40
2019-05-29T06:47:19.488Z,8.60
2019-05-29T06:48:19.293Z,8.50
2019-05-29T06:49:19.191Z,8.70
2019-05-29T06:50:19.106Z,9.10
2019-05-29T06:51:19.005Z,9.30
2019-05-29T06:52:18.898Z,8.70
2019-05-29T06:53:18.801Z,8.60
2019-05-29T06:54:18.710Z,8.20
2019-05-29T06:55:18.838Z,8.60
2019-05-29T06:56:18.579Z,8.20
2019-05-29T06:57:18.413Z,9.20
2019-05-29T06:58:18.319Z,8.50
2019-05-29T06:59:18.231Z,8.70
2019-05-29T07:00:34.424Z,8.80
2019-05-29T07:01:18.027Z,8.40
2019-05-29T07:02:18.037Z,7.60
2019-05-29T07:03:17.846Z,8.40
2019-05-29T07:04:17.736Z,8.40
2019-05-29T07:05:17.655Z,8.20
2019-05-29T07:06:17.545Z,7.60
2019-05-29T07:07:17.447Z,7.70
2019-05-29T07:08:24.241Z,8.30
2019-05-29T07:09:17.252Z,8.60
2019-05-29T07:10:17.177Z,7.50
2019-05-29T07:11:17.059Z,7.50
2019-05-29T07:12:16.964Z,7.50
2019-05-29T07:13:16.865Z,7.70
2019-05-29T07:14:16.773Z,7.50
2019-05-29T07:15:16.683Z,7.70
2019-05-29T07:16:16.689Z,7.40
2019-05-29T07:17:16.490Z,6.90
2019-05-29T07:18:16.381Z,7.30
2019-05-29T07:19:25.715Z,7.30
2019-05-29T07:20:16.204Z,7.10
2019-05-29T07:21:16.092Z,7.50
2019-05-29T07:22:15.994Z,7.00
2019-05-29T07:23:16.005Z,6.20
2019-05-29T07:24:15.800Z,5.90
2019-05-29T07:25:15.717Z,6.20
2019-05-29T07:26:15.609Z,6.60
2019-05-29T07:27:15.511Z,7.10
2019-05-29T07:28:15.412Z,7.00
2019-05-29T07:29:15.341Z,6.80
2019-05-29T07:30:15.356Z,6.80
2019-05-29T07:31:15.122Z,6.40
2019-05-29T07:32:15.029Z,5.70
2019-05-29T07:33:14.930Z,6.20
2019-05-29T07:34:14.831Z,6.60
2019-05-29T07:35:14.750Z,6.70
2019-05-29T07:36:14.742Z,5.90
2019-05-29T07:37:14.541Z,6.10
2019-05-29T07:38:14.445Z,5.70
2019-05-29T07:39:14.348Z,6.20
2019-05-29T07:40:14.265Z,6.60
2019-05-29T07:41:14.180Z,6.70
2019-05-29T07:42:14.069Z,6.70
2019-05-29T07:43:13.966Z,6.40
2019-05-29T07:44:13.972Z,5.80
2019-05-29T07:45:13.785Z,5.60
2019-05-29T07:46:13.675Z,5.50
2019-05-29T07:47:13.576Z,5.90
2019-05-29T07:48:13.536Z,6.70
2019-05-29T07:49:13.382Z,6.30
2019-05-29T07:50:13.299Z,6.00
2019-05-29T07:51:13.189Z,5.60
2019-05-29T07:52:13.093Z,5.30
2019-05-29T07:53:12.999Z,5.30
2019-05-29T07:54:12.901Z,5.50
2019-05-29T07:55:12.806Z,5.60
2019-05-29T07:56:22.219Z,5.50
2019-05-29T07:57:12.610Z,5.70
2019-05-29T07:58:12.517Z,5.80
2019-05-29T07:59:12.418Z,5.60
2019-05-29T08:00:12.348Z,5.60
2019-05-29T08:01:13.807Z,5.60
2019-05-29T08:02:12.131Z,6.10
2019-05-29T08:03:12.034Z,5.90
2019-05-29T08:04:11.939Z,6.70
2019-05-29T08:05:11.849Z,5.40
2019-05-29T08:06:11.760Z,5.30
2019-05-29T08:07:11.651Z,5.70
2019-05-29T08:08:11.555Z,5.60
2019-05-29T08:09:11.468Z,5.40
2019-05-29T08:10:11.367Z,5.60
2019-05-29T08:11:11.283Z,5.30
2019-05-29T08:12:11.173Z,5.30
2019-05-29T08:13:11.086Z,5.60
2019-05-29T08:14:10.983Z,5.50
2019-05-29T08:15:10.887Z,5.70
2019-05-29T08:16:10.803Z,5.70
2019-05-29T08:17:10.696Z,5.30
2019-05-29T08:18:10.602Z,5.90
2019-05-29T08:19:10.508Z,5.20
2019-05-29T08:20:10.409Z,5.50
2019-05-29T08:21:10.326Z,5.30
2019-05-29T08:22:10.221Z,5.30
2019-05-29T08:23:10.125Z,5.30
2019-05-29T08:24:10.026Z,5.40
2019-05-29T08:25:09.935Z,5.60
2019-05-29T08:26:09.851Z,5.90
2019-05-29T08:27:09.743Z,5.30
2019-05-29T08:28:09.677Z,5.10
2019-05-29T08:29:09.549Z,5.50
2019-05-29T08:30:09.455Z,5.70
2019-05-29T08:31:09.372Z,5.10
2019-05-29T08:32:09.266Z,5.50
2019-05-29T08:33:09.167Z,5.70
2019-05-29T08:34:09.074Z,5.30
2019-05-29T08:35:08.975Z,4.90
2019-05-29T08:36:08.896Z,5.30
2019-05-29T08:37:08.789Z,5.40
2019-05-29T08:38:08.709Z,5.50
2019-05-29T08:39:08.597Z,5.10
2019-05-29T08:40:08.505Z,5.20
2019-05-29T08:41:08.421Z,4.70
2019-05-29T08:42:22.506Z,5.00
2019-05-29T08:43:08.215Z,5.00
2019-05-29T08:44:08.121Z,5.10
2019-05-29T08:45:08.029Z,5.60
2019-05-29T08:46:07.950Z,6.00
2019-05-29T08:47:10.384Z,5.40
2019-05-29T08:48:07.742Z,5.30
2019-05-29T08:49:07.650Z,4.70
2019-05-29T08:50:18.098Z,5.30
2019-05-29T08:51:07.470Z,5.40
2019-05-29T08:52:11.869Z,5.10
2019-05-29T08:53:07.268Z,5.40
2019-05-29T08:54:23.018Z,5.00
2019-05-29T08:55:07.079Z,4.90
2019-05-29T08:56:06.985Z,5.90
2019-05-29T08:57:06.903Z,5.50
2019-05-29T08:58:06.828Z,5.80
2019-05-29T08:59:06.700Z,5.30
2019-05-29T09:00:06.735Z,5.40
2019-05-29T09:01:06.526Z,6.60
2019-05-29T09:02:06.417Z,5.50
2019-05-29T09:03:06.319Z,5.50
2019-05-29T09:04:06.238Z,5.90
2019-05-29T09:05:06.149Z,5.80
2019-05-29T09:06:09.145Z,5.50
2019-05-29T09:07:05.959Z,5.10
2019-05-29T09:08:05.849Z,5.80
2019-05-29T09:09:05.763Z,5.20
2019-05-29T09:10:05.660Z,4.90
2019-05-29T09:11:05.576Z,4.90
2019-05-29T09:12:05.507Z,5.00
2019-05-29T09:13:05.485Z,4.80
2019-05-29T09:14:05.386Z,5.10
2019-05-29T09:15:05.233Z,5.10
2019-05-29T09:16:05.096Z,4.90
2019-05-29T09:17:05.038Z,5.40
2019-05-29T09:18:04.906Z,6.20
2019-05-29T09:19:04.811Z,4.70
2019-05-29T09:20:04.716Z,4.20
2019-05-29T09:21:04.728Z,5.30
2019-05-29T09:22:04.543Z,3.80
2019-05-29T09:23:04.435Z,4.10
2019-05-29T09:24:04.341Z,6.30
2019-05-29T09:25:04.255Z,4.40
2019-05-29T09:26:14.269Z,4.30
2019-05-29T09:27:04.073Z,4.00
2019-05-29T09:28:04.070Z,3.80
2019-05-29T09:29:03.872Z,4.10
2019-05-29T09:30:03.777Z,4.60
2019-05-29T09:31:03.684Z,3.80
2019-05-29T09:32:03.611Z,5.90
2019-05-29T09:33:03.500Z,5.10
2019-05-29T09:34:03.403Z,6.10
2019-05-29T09:35:03.415Z,3.70
2019-05-29T09:36:03.215Z,7.10
2019-05-29T09:37:03.346Z,4.60
2019-05-29T09:38:03.029Z,4.60
2019-05-29T09:39:02.958Z,5.30
2019-05-29T09:40:02.839Z,4.50
2019-05-29T09:41:02.750Z,4.20
2019-05-29T09:42:02.777Z,3.30
2019-05-29T09:43:02.558Z,3.40
2019-05-29T09:44:02.468Z,4.20
2019-05-29T09:45:02.378Z,3.40
2019-05-29T09:46:02.467Z,4.30
2019-05-29T09:47:02.200Z,4.90
2019-05-29T09:48:02.135Z,4.70
2019-05-29T09:49:02.219Z,4.30
2019-05-29T09:50:01.907Z,3.50
2019-05-29T09:51:19.909Z,3.50
2019-05-29T09:52:02.041Z,3.90
2019-05-29T09:53:02.681Z,5.50
2019-05-29T09:54:03.293Z,5.00
2019-05-29T09:55:02.535Z,4.40
2019-05-29T09:56:02.918Z,3.20
2019-05-29T09:57:01.267Z,4.20
2019-05-29T09:58:01.179Z,3.70
2019-05-29T09:59:01.843Z,3.60
2019-05-29T10:00:02.223Z,3.60
2019-05-29T10:01:18.297Z,7.00
2019-05-29T10:02:06.866Z,3.40
2019-05-29T10:03:01.446Z,4.80
2019-05-29T10:04:03.335Z,3.30
2019-05-29T10:05:02.499Z,3.80
2019-05-29T10:06:01.530Z,3.20
2019-05-29T10:07:02.154Z,2.70
2019-05-29T10:08:02.128Z,5.70
2019-05-29T10:09:00.180Z,4.00
2019-05-29T10:10:01.510Z,4.60
2019-05-29T10:11:07.928Z,3.90
2019-05-29T10:12:03.555Z,3.60
2019-05-29T10:13:00.051Z,3.50
2019-05-29T10:14:00.580Z,4.90
2019-05-29T10:15:00.918Z,4.10
2019-05-29T10:16:00.821Z,5.80
2019-05-29T10:17:05.344Z,4.10
2019-05-29T10:18:00.541Z,3.70
2019-05-29T10:19:00.351Z,2.80
2019-05-29T10:19:59.143Z,4.10
2019-05-29T10:20:59.707Z,4.10
2019-05-29T10:22:00.730Z,4.00
2019-05-29T10:22:59.052Z,4.60
2019-05-29T10:23:59.571Z,3.30
2019-05-29T10:24:59.934Z,5.40
2019-05-29T10:26:00.288Z,4.80
2019-05-29T10:26:59.974Z,4.70
2019-05-29T10:27:58.425Z,3.90
2019-05-29T10:29:07.911Z,4.40
2019-05-29T10:29:58.225Z,3.60
2019-05-29T10:31:03.113Z,3.80
2019-05-29T10:31:58.043Z,3.50
2019-05-29T10:32:57.971Z,4.50
2019-05-29T10:33:57.857Z,5.20
2019-05-29T10:34:57.767Z,3.60
2019-05-29T10:35:57.676Z,4.40
2019-05-29T10:36:57.581Z,4.60
2019-05-29T10:37:57.503Z,5.10
2019-05-29T10:38:57.395Z,4.40
2019-05-29T10:39:57.325Z,4.40
2019-05-29T10:41:06.457Z,4.50
2019-05-29T10:41:57.121Z,3.40
2019-05-29T10:42:57.039Z,4.60
2019-05-29T10:43:56.941Z,4.40
2019-05-29T10:44:56.844Z,4.50
2019-05-29T10:45:56.753Z,3.30
2019-05-29T10:46:56.782Z,3.30
2019-05-29T10:47:56.584Z,4.70
2019-05-29T10:48:56.770Z,3.40
2019-05-29T10:49:56.382Z,3.40
2019-05-29T10:50:56.290Z,3.80
2019-05-29T10:52:12.313Z,4.20
2019-05-29T10:52:56.120Z,5.90
2019-05-29T10:53:58.575Z,3.20
2019-05-29T10:54:55.922Z,3.90
2019-05-29T10:55:55.830Z,4.70
2019-05-29T10:56:55.737Z,4.20
2019-05-29T10:57:55.659Z,6.50
2019-05-29T10:58:59.508Z,5.20
2019-05-29T10:59:55.459Z,4.50
2019-05-29T11:00:55.651Z,4.60
2019-05-29T11:01:55.501Z,3.30
2019-05-29T11:02:57.423Z,3.30
2019-05-29T11:03:55.889Z,3.90
2019-05-29T11:04:58.845Z,5.40
2019-05-29T11:05:56.345Z,4.40
2019-05-29T11:06:55.492Z,4.40
2019-05-29T11:07:55.862Z,3.10
2019-05-29T11:08:54.651Z,6.00
2019-05-29T11:09:54.546Z,3.50
2019-05-29T11:10:54.451Z,6.00
2019-05-29T11:11:55.364Z,2.90
2019-05-29T11:12:54.671Z,3.80
2019-05-29T11:13:55.190Z,5.60
2019-05-29T11:14:55.036Z,4.10
2019-05-29T11:15:54.827Z,3.50
2019-05-29T11:16:54.997Z,3.70
2019-05-29T11:17:54.096Z,3.80
2019-05-29T11:18:53.853Z,3.20
2019-05-29T11:19:53.658Z,3.60
2019-05-29T11:20:53.541Z,3.90
2019-05-29T11:21:53.935Z,3.40
2019-05-29T11:22:53.692Z,3.80
2019-05-29T11:23:53.857Z,3.00
2019-05-29T11:24:54.110Z,3.10
2019-05-29T11:25:54.014Z,3.80
2019-05-29T11:26:53.026Z,3.60
2019-05-29T11:27:53.275Z,5.30
2019-05-29T11:28:52.832Z,3.60
2019-05-29T11:29:53.291Z,3.70
2019-05-29T11:30:53.820Z,3.70
2019-05-29T11:31:53.419Z,4.00
2019-05-29T11:32:54.920Z,3.40
2019-05-29T11:33:53.069Z,3.20
2019-05-29T11:34:53.676Z,3.90
2019-05-29T11:36:06.361Z,3.90
2019-05-29T11:36:52.082Z,3.60
2019-05-29T11:37:52.560Z,5.00
2019-05-29T11:38:52.577Z,3.30
2019-05-29T11:39:52.546Z,3.00
2019-05-29T11:41:04.591Z,3.70
2019-05-29T11:41:52.594Z,3.40
2019-05-29T11:42:52.751Z,2.90
2019-05-29T11:43:52.648Z,3.70
2019-05-29T11:44:51.354Z,3.50
2019-05-29T11:45:51.328Z,3.80
2019-05-29T11:46:52.118Z,4.60
2019-05-29T11:47:51.579Z,3.60
2019-05-29T11:48:51.177Z,4.30
2019-05-29T11:49:50.982Z,4.70
2019-05-29T11:50:52.027Z,3.40
2019-05-29T11:51:51.587Z,3.80
2019-05-29T11:52:50.624Z,3.90
2019-05-29T11:53:51.485Z,4.00
2019-05-29T11:54:53.617Z,2.50
2019-05-29T11:55:52.358Z,2.90
2019-05-29T11:56:51.846Z,3.50
2019-05-29T11:57:50.166Z,3.70
2019-05-29T11:58:50.763Z,3.10
2019-05-29T11:59:49.985Z,3.70
2019-05-29T12:00:50.727Z,4.80
2019-05-29T12:01:50.894Z,5.30
2019-05-29T12:02:51.268Z,3.00
2019-05-29T12:04:13.741Z,4.90
2019-05-29T12:04:49.531Z,4.00
2019-05-29T12:05:49.440Z,4.60
2019-05-29T12:06:49.347Z,4.90
2019-05-29T12:07:49.372Z,5.50
2019-05-29T12:08:49.180Z,3.50
2019-05-29T12:09:49.075Z,4.00
2019-05-29T12:10:48.982Z,4.20
2019-05-29T12:11:48.891Z,6.00
2019-05-29T12:12:48.802Z,4.00
2019-05-29T12:13:48.724Z,3.10
2019-05-29T12:15:00.322Z,5.10
2019-05-29T12:15:48.523Z,4.60
2019-05-29T12:16:48.431Z,3.80
2019-05-29T12:17:48.525Z,4.10
2019-05-29T12:18:48.265Z,6.00
2019-05-29T12:19:48.160Z,4.40
2019-05-29T12:20:48.065Z,3.90
2019-05-29T12:21:47.974Z,4.30
2019-05-29T12:23:13.184Z,4.40
2019-05-29T12:23:47.789Z,6.30
2019-05-29T12:24:47.717Z,3.30
2019-05-29T12:25:47.604Z,4.60
2019-05-29T12:26:47.509Z,5.20
2019-05-29T12:27:47.420Z,3.70
2019-05-29T12:28:47.338Z,4.20
2019-05-29T12:29:47.249Z,5.90
2019-05-29T12:30:47.142Z,3.60
2019-05-29T12:31:47.053Z,3.00
2019-05-29T12:32:46.959Z,3.10
2019-05-29T12:33:46.889Z,3.80
2019-05-29T12:34:53.713Z,4.20
2019-05-29T12:35:50.070Z,4.20
2019-05-29T12:36:46.609Z,3.40
2019-05-29T12:37:46.527Z,3.70
2019-05-29T12:38:46.407Z,4.80
2019-05-29T12:39:46.344Z,4.50
2019-05-29T12:40:46.221Z,5.80
2019-05-29T12:41:46.132Z,3.60
2019-05-29T12:42:46.037Z,3.90
2019-05-29T12:43:45.945Z,3.90
2019-05-29T12:44:45.875Z,4.40
2019-05-29T12:45:45.761Z,4.50
2019-05-29T12:46:45.668Z,5.00
2019-05-29T12:47:45.578Z,4.20
2019-05-29T12:48:45.484Z,5.00
2019-05-29T12:49:45.465Z,4.60
2019-05-29T12:50:45.297Z,5.00
2019-05-29T12:51:45.205Z,4.40
2019-05-29T12:52:45.112Z,4.70
2019-05-29T12:53:45.027Z,3.80
2019-05-29T12:54:44.941Z,3.90
2019-05-29T12:55:44.834Z,5.80
2019-05-29T12:56:44.747Z,3.90
2019-05-29T12:57:44.972Z,5.70
2019-05-29T12:58:44.556Z,3.80
2019-05-29T12:59:44.477Z,4.30
2019-05-29T13:00:44.376Z,3.10
2019-05-29T13:01:44.281Z,4.30
2019-05-29T13:02:44.199Z,3.20
2019-05-29T13:03:45.865Z,3.60
2019-05-29T13:05:06.969Z,5.30
2019-05-29T13:05:43.910Z,3.80
2019-05-29T13:06:43.818Z,3.20
2019-05-29T13:07:43.731Z,3.20
2019-05-29T13:08:43.635Z,3.70
2019-05-29T13:09:43.558Z,3.40